createdAt,value
2019-01-12T00:00:31.528Z,100832.89
2019-01-12T00:01:14.042Z,100829.66
2019-01-12T00:01:51.165Z,100838.53
2019-01-12T00:02:28.281Z,100840.93
2019-01-12T00:03:05.402Z,100837.16
2019-01-12T00:03:42.050Z,100834.45
2019-01-12T00:04:18.305Z,100844.16
2019-01-12T00:04:55.026Z,100843.07
2019-01-12T00:05:31.609Z,100841.71
2019-01-12T00:06:08.683Z,100847.08
2019-01-12T00:06:45.688Z,100847.88
2019-01-12T00:07:22.027Z,100847.89
2019-01-12T00:07:58.567Z,100854.11
2019-01-12T00:08:35.741Z,100849.23
2019-01-12T00:09:12.495Z,100851.95
2019-01-12T00:09:49.575Z,100855.17
2019-01-12T00:10:25.802Z,100852.74
2019-01-12T00:11:01.939Z,100855.42
2019-01-12T00:11:39.035Z,100855.41
2019-01-12T00:12:16.149Z,100853.52
2019-01-12T00:12:52.471Z,100855.94
2019-01-12T00:13:28.835Z,100858.88
2019-01-12T00:14:05.796Z,100861.55
2019-01-12T00:14:42.230Z,100855.61
2019-01-12T00:15:19.006Z,100860.48
2019-01-12T00:15:56.078Z,100854.83
2019-01-12T00:16:33.092Z,100858.83
2019-01-12T00:17:10.028Z,100858.03
2019-01-12T00:17:46.587Z,100862.05
2019-01-12T00:18:23.004Z,100863.13
2019-01-12T00:18:59.825Z,100864.45
2019-01-12T00:19:36.602Z,100867.11
2019-01-12T00:20:12.972Z,100866.83
2019-01-12T00:20:52.548Z,100867.64
2019-01-12T00:21:29.460Z,100864.95
2019-01-12T00:22:05.928Z,100866.03
2019-01-12T00:22:42.316Z,100867.91
2019-01-12T00:23:19.307Z,100865.47
2019-01-12T00:23:56.411Z,100864.94
2019-01-12T00:24:32.949Z,100867.59
2019-01-12T00:25:09.742Z,100860.60
2019-01-12T00:25:46.706Z,100869.21
2019-01-12T00:26:23.666Z,100870.30
2019-01-12T00:26:59.960Z,100868.13
2019-01-12T00:27:37.007Z,100871.59
2019-01-12T00:28:13.305Z,100873.48
2019-01-12T00:28:49.493Z,100871.57
2019-01-12T00:29:26.430Z,100881.55
2019-01-12T00:30:02.826Z,100872.67
2019-01-12T00:30:39.089Z,100874.56
2019-01-12T00:31:15.889Z,100878.86
2019-01-12T00:31:52.621Z,100884.22
2019-01-12T00:32:29.403Z,100883.66
2019-01-12T00:33:06.402Z,100889.03
2019-01-12T00:33:43.258Z,100884.20
2019-01-12T00:34:20.187Z,100883.91
2019-01-12T00:34:57.156Z,100890.91
2019-01-12T00:35:34.123Z,100890.34
2019-01-12T00:36:10.918Z,100892.73
2019-01-12T00:36:47.133Z,100893.55
2019-01-12T00:37:23.564Z,100896.77
2019-01-12T00:38:02.071Z,100898.36
2019-01-12T00:38:39.124Z,100898.34
2019-01-12T00:39:15.560Z,100899.42
2019-01-12T00:39:51.966Z,100907.49
2019-01-12T00:40:28.307Z,100904.25
2019-01-12T00:41:04.501Z,100911.80
2019-01-12T00:41:41.543Z,100911.56
2019-01-12T00:42:18.505Z,100907.75
2019-01-12T00:42:54.835Z,100909.34
2019-01-12T00:43:31.946Z,100910.95
2019-01-12T00:44:08.715Z,100906.91
2019-01-12T00:44:45.061Z,100907.73
2019-01-12T00:45:21.386Z,100904.20
2019-01-12T00:45:59.991Z,100907.42
2019-01-12T00:46:36.235Z,100903.91
2019-01-12T00:47:13.346Z,100910.08
2019-01-12T00:47:50.240Z,100911.67
2019-01-12T00:48:26.637Z,100911.92
2019-01-12T00:49:03.382Z,100911.34
2019-01-12T00:49:39.726Z,100922.92
2019-01-12T00:50:17.137Z,100914.81
2019-01-12T00:50:54.060Z,100913.16
2019-01-12T00:51:30.903Z,100918.52
2019-01-12T00:52:08.916Z,100923.63
2019-01-12T00:52:45.273Z,100915.30
2019-01-12T00:53:22.250Z,100918.76
2019-01-12T00:53:58.639Z,100918.19
2019-01-12T00:54:38.662Z,100924.63
2019-01-12T00:55:14.363Z,100921.09
2019-01-12T00:55:50.764Z,100918.36
2019-01-12T00:56:27.089Z,100915.41
2019-01-12T00:57:03.858Z,100924.23
2019-01-12T00:57:40.943Z,100930.41
2019-01-12T00:58:17.118Z,100925.52
2019-01-12T00:58:53.527Z,100925.52
2019-01-12T00:59:30.214Z,100925.23
2019-01-12T01:00:09.134Z,100922.88
2019-01-12T01:00:46.290Z,100926.09
2019-01-12T01:01:23.456Z,100930.41
2019-01-12T01:02:00.512Z,100934.97
2019-01-12T01:02:36.945Z,100940.06
2019-01-12T01:03:13.777Z,100940.84
2019-01-12T01:03:50.129Z,100939.98
2019-01-12T01:04:26.912Z,100934.86
2019-01-12T01:05:03.571Z,100931.33
2019-01-12T01:05:40.481Z,100931.33
2019-01-12T01:06:16.766Z,100940.11
2019-01-12T01:06:53.651Z,100935.58
2019-01-12T01:07:30.904Z,100939.53
2019-01-12T01:08:07.266Z,100940.83
2019-01-12T01:08:43.686Z,100943.46
2019-01-12T01:09:20.895Z,100926.19
2019-01-12T01:09:57.250Z,100941.20
2019-01-12T01:10:34.226Z,100933.94
2019-01-12T01:11:11.313Z,100933.94
2019-01-12T01:11:48.164Z,100946.61
2019-01-12T01:12:24.486Z,100943.62
2019-01-12T01:13:00.818Z,100939.50
2019-01-12T01:13:37.142Z,100949.20
2019-01-12T01:14:14.136Z,100950.56
2019-01-12T01:14:51.398Z,100945.13
2019-01-12T01:15:28.158Z,100949.88
2019-01-12T01:16:04.859Z,100949.88
2019-01-12T01:16:41.257Z,100954.91
2019-01-12T01:17:17.493Z,100954.91
2019-01-12T01:17:54.340Z,100939.02
2019-01-12T01:18:31.405Z,100953.81
2019-01-12T01:19:08.037Z,100949.50
2019-01-12T01:19:44.991Z,100959.08
2019-01-12T01:20:22.212Z,100954.98
2019-01-12T01:20:58.580Z,100947.38
2019-01-12T01:21:34.974Z,100942.80
2019-01-12T01:22:11.316Z,100942.80
2019-01-12T01:22:47.524Z,100950.00
2019-01-12T01:23:24.508Z,100945.22
2019-01-12T01:24:00.674Z,100952.95
2019-01-12T01:24:38.040Z,100952.95
2019-01-12T01:25:15.155Z,100953.17
2019-01-12T01:25:51.468Z,100954.11
2019-01-12T01:26:28.264Z,100958.42
2019-01-12T01:27:05.164Z,100958.42
2019-01-12T01:27:42.267Z,100951.91
2019-01-12T01:28:19.158Z,100959.38
2019-01-12T01:28:55.859Z,100959.38
2019-01-12T01:29:32.861Z,100951.81
2019-01-12T01:30:15.814Z,100948.44
2019-01-12T01:30:52.722Z,100948.44
2019-01-12T01:31:29.457Z,100943.27
2019-01-12T01:32:05.787Z,100953.92
2019-01-12T01:32:42.991Z,100953.92
2019-01-12T01:33:19.326Z,100962.20
2019-01-12T01:33:56.007Z,100949.68
2019-01-12T01:34:38.326Z,100952.63
2019-01-12T01:35:15.386Z,100952.63
2019-01-12T01:35:53.060Z,100957.99
2019-01-12T01:36:29.298Z,100957.99
2019-01-12T01:37:06.386Z,100956.59
2019-01-12T01:37:44.578Z,100961.16
2019-01-12T01:38:21.753Z,100952.33
2019-01-12T01:38:57.982Z,100958.70
2019-01-12T01:39:35.111Z,100948.86
2019-01-12T01:40:14.009Z,100955.45
2019-01-12T01:40:51.190Z,100955.45
2019-01-12T01:41:28.186Z,100954.00
2019-01-12T01:42:05.287Z,100958.53
2019-01-12T01:42:41.654Z,100952.83
2019-01-12T01:43:18.095Z,100952.83
2019-01-12T01:43:55.196Z,100960.25
2019-01-12T01:44:32.297Z,100954.78
2019-01-12T01:45:09.419Z,100959.59
2019-01-12T01:45:46.642Z,100963.00
2019-01-12T01:46:22.843Z,100955.13
2019-01-12T01:47:00.166Z,100955.13
2019-01-12T01:47:37.048Z,100957.99
2019-01-12T01:48:13.355Z,100950.38
2019-01-12T01:48:49.568Z,100950.38
2019-01-12T01:49:26.562Z,100958.59
2019-01-12T01:50:02.738Z,100953.58
2019-01-12T01:50:39.109Z,100952.98
2019-01-12T01:51:15.651Z,100954.52
2019-01-12T01:51:55.470Z,100956.82
2019-01-12T01:52:32.087Z,100962.74
2019-01-12T01:53:08.701Z,100951.60
2019-01-12T01:53:45.719Z,100959.48
2019-01-12T01:54:23.136Z,100964.14
2019-01-12T01:54:59.593Z,100958.67
2019-01-12T01:55:35.900Z,100954.56
2019-01-12T01:56:12.342Z,100958.13
2019-01-12T01:56:48.915Z,100953.77
2019-01-12T01:57:26.171Z,100957.22
2019-01-12T01:58:03.208Z,100958.83
2019-01-12T01:58:39.659Z,100950.50
2019-01-12T01:59:16.802Z,100956.05
2019-01-12T01:59:53.891Z,100954.66
2019-01-12T02:00:30.118Z,100958.20
2019-01-12T02:01:06.495Z,100964.65
2019-01-12T02:01:43.533Z,100961.08
2019-01-12T02:02:19.790Z,100958.87
2019-01-12T02:02:56.797Z,100958.46
2019-01-12T02:03:33.762Z,100961.12
2019-01-12T02:04:09.993Z,100961.29
2019-01-12T02:04:47.075Z,100963.95
2019-01-12T02:05:24.084Z,100957.47
2019-01-12T02:06:01.460Z,100964.39
2019-01-12T02:06:38.476Z,100955.75
2019-01-12T02:07:15.420Z,100960.57
2019-01-12T02:07:51.797Z,100961.68
2019-01-12T02:08:28.622Z,100966.60
2019-01-12T02:09:07.722Z,100966.71
2019-01-12T02:09:44.872Z,100961.17
2019-01-12T02:10:23.195Z,100969.47
2019-01-12T02:10:59.683Z,100967.36
2019-01-12T02:11:36.406Z,100967.98
2019-01-12T02:12:13.074Z,100975.89
2019-01-12T02:12:49.849Z,100975.89
2019-01-12T02:13:27.009Z,100973.78
2019-01-12T02:14:03.363Z,100973.78
2019-01-12T02:14:39.682Z,100962.46
2019-01-12T02:15:16.561Z,100962.46
2019-01-12T02:15:52.778Z,100972.54
2019-01-12T02:16:29.547Z,100972.54
2019-01-12T02:17:05.940Z,100982.87
2019-01-12T02:17:42.829Z,100976.66
2019-01-12T02:18:19.505Z,100968.67
2019-01-12T02:18:55.691Z,100962.66
2019-01-12T02:19:32.071Z,100962.66
2019-01-12T02:20:09.096Z,100975.30
2019-01-12T02:20:45.871Z,100968.73
2019-01-12T02:21:22.242Z,100978.16
2019-01-12T02:21:59.340Z,100978.16
2019-01-12T02:22:36.303Z,100984.12
2019-01-12T02:23:13.241Z,100986.28
2019-01-12T02:23:49.599Z,100986.28
2019-01-12T02:24:25.857Z,100987.09
2019-01-12T02:25:02.201Z,100984.38
2019-01-12T02:25:39.174Z,100983.11
2019-01-12T02:26:16.272Z,100983.11
2019-01-12T02:26:52.528Z,100981.92
2019-01-12T02:27:29.636Z,100987.34
2019-01-12T02:28:06.105Z,100984.08
2019-01-12T02:28:42.390Z,100981.92
2019-01-12T02:29:19.959Z,100981.92
2019-01-12T02:29:57.181Z,100991.10
2019-01-12T02:30:33.317Z,100988.39
2019-01-12T02:31:10.307Z,100983.58
2019-01-12T02:31:46.640Z,100983.02
2019-01-12T02:32:22.929Z,100986.28
2019-01-12T02:33:00.211Z,100983.88
2019-01-12T02:33:36.451Z,100983.88
2019-01-12T02:34:12.812Z,100984.62
2019-01-12T02:34:49.842Z,100974.40
2019-01-12T02:35:27.870Z,100985.56
2019-01-12T02:36:04.994Z,100980.66
2019-01-12T02:36:41.879Z,100979.00
2019-01-12T02:37:18.816Z,100984.92
2019-01-12T02:37:55.190Z,100976.75
2019-01-12T02:38:31.980Z,100979.41
2019-01-12T02:39:09.822Z,100977.20
2019-01-12T02:39:46.790Z,100970.63
2019-01-12T02:40:23.625Z,100970.63
2019-01-12T02:40:59.927Z,100976.79
2019-01-12T02:41:36.343Z,100972.72
2019-01-12T02:42:12.748Z,100974.14
2019-01-12T02:42:49.699Z,100970.02
2019-01-12T02:43:26.551Z,100970.02
2019-01-12T02:44:02.978Z,100978.55
2019-01-12T02:44:40.180Z,100979.91
2019-01-12T02:45:17.354Z,100974.03
2019-01-12T02:45:55.334Z,100973.17
2019-01-12T02:46:31.663Z,100976.64
2019-01-12T02:47:08.673Z,100975.33
2019-01-12T02:47:45.461Z,100981.30
2019-01-12T02:48:22.219Z,100977.84
2019-01-12T02:48:59.675Z,100974.97
2019-01-12T02:49:37.516Z,100973.92
2019-01-12T02:50:14.192Z,100974.42
2019-01-12T02:50:50.492Z,100969.05
2019-01-12T02:51:26.813Z,100966.79
2019-01-12T02:52:03.304Z,100964.08
2019-01-12T02:52:39.472Z,100965.68
2019-01-12T02:53:15.859Z,100967.64
2019-01-12T02:53:52.754Z,100965.73
2019-01-12T02:54:29.806Z,100967.64
2019-01-12T02:55:08.943Z,100967.39
2019-01-12T02:55:44.460Z,100964.19
2019-01-12T02:56:21.191Z,100964.25
2019-01-12T02:56:57.850Z,100962.67
2019-01-12T02:57:34.568Z,100965.99
2019-01-12T02:58:11.517Z,100960.88
2019-01-12T02:58:48.106Z,100958.97
2019-01-12T02:59:24.721Z,100962.17
2019-01-12T03:00:00.972Z,100962.92
2019-01-12T03:00:37.599Z,100964.66
2019-01-12T03:01:13.822Z,100964.58
2019-01-12T03:01:51.023Z,100963.66
2019-01-12T03:02:27.324Z,100970.50
2019-01-12T03:03:03.487Z,100963.97
2019-01-12T03:03:41.411Z,100971.05
2019-01-12T03:04:17.572Z,100966.79
2019-01-12T03:04:54.052Z,100963.30
2019-01-12T03:05:31.187Z,100965.77
2019-01-12T03:06:07.905Z,100966.38
2019-01-12T03:06:44.694Z,100972.30
2019-01-12T03:07:21.557Z,100966.30
2019-01-12T03:07:58.328Z,100963.77
2019-01-12T03:08:34.694Z,100962.27
2019-01-12T03:09:11.535Z,100966.23
2019-01-12T03:09:48.262Z,100962.41
2019-01-12T03:10:24.702Z,100956.73
2019-01-12T03:11:01.908Z,100962.16
2019-01-12T03:11:39.273Z,100961.17
2019-01-12T03:12:15.588Z,100963.88
2019-01-12T03:12:52.894Z,100957.93
2019-01-12T03:13:29.233Z,100962.66
2019-01-12T03:14:05.986Z,100962.81
2019-01-12T03:14:42.741Z,100960.29
2019-01-12T03:15:20.781Z,100958.50
2019-01-12T03:15:57.887Z,100955.54
2019-01-12T03:16:34.715Z,100960.97
2019-01-12T03:17:11.136Z,100960.66
2019-01-12T03:17:47.953Z,100956.09
2019-01-12T03:18:24.350Z,100961.55
2019-01-12T03:19:01.317Z,100960.80
2019-01-12T03:19:37.658Z,100961.91
2019-01-12T03:20:15.894Z,100962.52
2019-01-12T03:20:52.926Z,100964.44
2019-01-12T03:21:29.264Z,100961.86
2019-01-12T03:22:05.639Z,100962.97
2019-01-12T03:22:42.674Z,100964.08
2019-01-12T03:23:18.998Z,100959.77
2019-01-12T03:23:55.290Z,100958.16
2019-01-12T03:24:32.166Z,100957.63
2019-01-12T03:25:17.172Z,100964.66
2019-01-12T03:25:47.363Z,100956.53
2019-01-12T03:26:24.429Z,100956.25
2019-01-12T03:27:01.564Z,100955.95
2019-01-12T03:27:38.956Z,100957.24
2019-01-12T03:28:15.912Z,100955.39
2019-01-12T03:28:52.798Z,100953.73
2019-01-12T03:29:28.943Z,100956.13
2019-01-12T03:30:05.889Z,100955.58
2019-01-12T03:30:43.071Z,100955.09
2019-01-12T03:31:20.396Z,100952.13
2019-01-12T03:31:58.226Z,100952.37
2019-01-12T03:32:35.178Z,100957.55
2019-01-12T03:33:11.354Z,100947.81
2019-01-12T03:33:47.691Z,100956.25
2019-01-12T03:34:24.700Z,100960.34
2019-01-12T03:35:01.971Z,100952.27
2019-01-12T03:35:38.262Z,100952.57
2019-01-12T03:36:15.133Z,100951.22
2019-01-12T03:36:52.243Z,100946.34
2019-01-12T03:37:28.608Z,100947.40
2019-01-12T03:38:05.659Z,100944.19
2019-01-12T03:38:42.670Z,100948.26
2019-01-12T03:39:19.567Z,100947.40
2019-01-12T03:39:56.623Z,100940.87
2019-01-12T03:40:32.954Z,100946.84
2019-01-12T03:41:09.295Z,100948.26
2019-01-12T03:41:45.483Z,100941.42
2019-01-12T03:42:21.729Z,100946.29
2019-01-12T03:42:58.180Z,100949.23
2019-01-12T03:43:35.161Z,100947.31
2019-01-12T03:44:12.184Z,100943.88
2019-01-12T03:44:48.436Z,100947.45
2019-01-12T03:45:25.357Z,100946.59
2019-01-12T03:46:03.047Z,100948.14
2019-01-12T03:46:39.450Z,100945.68
2019-01-12T03:47:16.385Z,100948.67
2019-01-12T03:47:52.897Z,100938.07
2019-01-12T03:48:29.305Z,100941.77
2019-01-12T03:49:06.115Z,100938.61
2019-01-12T03:49:43.398Z,100937.13
2019-01-12T03:50:20.300Z,100938.73
2019-01-12T03:50:56.499Z,100937.59
2019-01-12T03:51:32.818Z,100939.94
2019-01-12T03:52:11.716Z,100937.97
2019-01-12T03:52:48.245Z,100937.05
2019-01-12T03:53:24.772Z,100941.86
2019-01-12T03:54:01.487Z,100939.39
2019-01-12T03:54:38.029Z,100937.38
2019-01-12T03:55:14.497Z,100938.92
2019-01-12T03:55:51.289Z,100939.66
2019-01-12T03:56:27.811Z,100940.03
2019-01-12T03:57:05.074Z,100940.28
2019-01-12T03:57:41.573Z,100937.19
2019-01-12T03:58:18.339Z,100935.82
2019-01-12T03:58:55.220Z,100934.98
2019-01-12T03:59:31.846Z,100931.06
2019-01-12T04:00:12.246Z,100929.92
2019-01-12T04:00:49.084Z,100937.27
2019-01-12T04:01:25.405Z,100933.75
2019-01-12T04:02:02.415Z,100936.33
2019-01-12T04:02:39.239Z,100933.66
2019-01-12T04:03:16.306Z,100934.23
2019-01-12T04:03:53.663Z,100928.83
2019-01-12T04:04:30.012Z,100923.22
2019-01-12T04:05:06.472Z,100928.52
2019-01-12T04:05:43.517Z,100928.37
2019-01-12T04:06:19.915Z,100927.45
2019-01-12T04:06:56.704Z,100930.48
2019-01-12T04:07:33.102Z,100931.94
2019-01-12T04:08:09.364Z,100930.89
2019-01-12T04:08:46.231Z,100928.34
2019-01-12T04:09:23.244Z,100930.91
2019-01-12T04:09:59.452Z,100928.68
2019-01-12T04:10:36.436Z,100930.16
2019-01-12T04:11:12.765Z,100930.72
2019-01-12T04:11:49.123Z,100936.91
2019-01-12T04:12:26.627Z,100936.25
2019-01-12T04:13:03.274Z,100932.81
2019-01-12T04:13:40.602Z,100932.95
2019-01-12T04:14:17.305Z,100925.80
2019-01-12T04:14:54.154Z,100923.56
2019-01-12T04:15:30.756Z,100929.00
2019-01-12T04:16:07.784Z,100932.72
2019-01-12T04:16:44.907Z,100927.77
2019-01-12T04:17:22.530Z,100929.37
2019-01-12T04:17:59.183Z,100926.89
2019-01-12T04:18:36.081Z,100924.05
2019-01-12T04:19:12.753Z,100923.56
2019-01-12T04:19:49.599Z,100925.87
2019-01-12T04:20:26.590Z,100920.75
2019-01-12T04:21:03.002Z,100923.64
2019-01-12T04:21:39.647Z,100921.89
2019-01-12T04:22:16.194Z,100916.89
2019-01-12T04:22:52.537Z,100919.22
2019-01-12T04:23:29.774Z,100917.72
2019-01-12T04:24:06.155Z,100918.29
2019-01-12T04:24:43.137Z,100927.05
2019-01-12T04:25:20.037Z,100915.69
2019-01-12T04:25:57.904Z,100916.81
2019-01-12T04:26:34.993Z,100913.97
2019-01-12T04:27:11.575Z,100920.13
2019-01-12T04:27:47.876Z,100918.50
2019-01-12T04:28:24.329Z,100919.70
2019-01-12T04:29:00.652Z,100919.54
2019-01-12T04:29:37.515Z,100920.53
2019-01-12T04:30:16.544Z,100919.30
2019-01-12T04:30:52.912Z,100914.50
2019-01-12T04:31:29.880Z,100918.73
2019-01-12T04:32:06.750Z,100911.09
2019-01-12T04:32:43.147Z,100912.58
2019-01-12T04:33:19.877Z,100911.69
2019-01-12T04:33:56.983Z,100910.77
2019-01-12T04:34:33.251Z,100909.41
2019-01-12T04:35:10.172Z,100911.81
2019-01-12T04:35:47.017Z,100912.93
2019-01-12T04:36:23.329Z,100907.56
2019-01-12T04:36:59.696Z,100903.33
2019-01-12T04:37:36.492Z,100910.05
2019-01-12T04:38:13.713Z,100907.64
2019-01-12T04:38:50.629Z,100911.48
2019-01-12T04:39:27.688Z,100907.72
2019-01-12T04:40:04.112Z,100912.91
2019-01-12T04:40:41.114Z,100907.96
2019-01-12T04:41:18.173Z,100907.00
2019-01-12T04:41:54.630Z,100906.67
2019-01-12T04:42:31.314Z,100903.16
2019-01-12T04:43:07.659Z,100910.34
2019-01-12T04:43:44.858Z,100905.95
2019-01-12T04:44:21.982Z,100904.03
2019-01-12T04:44:59.059Z,100907.80
2019-01-12T04:45:36.029Z,100907.48
2019-01-12T04:46:13.034Z,100906.53
2019-01-12T04:46:49.336Z,100904.30
2019-01-12T04:47:25.869Z,100906.94
2019-01-12T04:48:02.516Z,100904.45
2019-01-12T04:48:39.514Z,100906.91
2019-01-12T04:49:16.596Z,100904.05
2019-01-12T04:49:53.188Z,100903.91
2019-01-12T04:50:30.278Z,100900.86
2019-01-12T04:51:07.155Z,100896.78
2019-01-12T04:51:43.568Z,100906.46
2019-01-12T04:52:20.363Z,100901.14
2019-01-12T04:52:57.619Z,100900.42
2019-01-12T04:53:33.933Z,100903.38
2019-01-12T04:54:10.784Z,100901.37
2019-01-12T04:54:47.311Z,100899.38
2019-01-12T04:55:23.682Z,100900.73
2019-01-12T04:55:59.977Z,100902.34
2019-01-12T04:56:37.397Z,100895.53
2019-01-12T04:57:13.790Z,100904.42
2019-01-12T04:57:51.207Z,100897.86
2019-01-12T04:58:28.299Z,100899.86
2019-01-12T04:59:04.825Z,100903.53
2019-01-12T04:59:41.271Z,100900.41
2019-01-12T05:00:19.291Z,100904.13
2019-01-12T05:00:55.730Z,100895.32
2019-01-12T05:01:31.941Z,100896.92
2019-01-12T05:02:08.715Z,100894.03
2019-01-12T05:02:45.134Z,100893.71
2019-01-12T05:03:22.134Z,100900.67
2019-01-12T05:03:58.434Z,100887.81
2019-01-12T05:04:35.370Z,100895.09
2019-01-12T05:05:11.776Z,100888.05
2019-01-12T05:05:48.204Z,100884.45
2019-01-12T05:06:24.850Z,100888.61
2019-01-12T05:07:01.414Z,100890.39
2019-01-12T05:07:38.396Z,100892.84
2019-01-12T05:08:14.827Z,100886.79
2019-01-12T05:08:51.233Z,100890.39
2019-01-12T05:09:27.532Z,100886.55
2019-01-12T05:10:04.235Z,100885.99
2019-01-12T05:10:40.762Z,100893.36
2019-01-12T05:11:17.933Z,100889.89
2019-01-12T05:11:54.522Z,100891.01
2019-01-12T05:12:31.679Z,100892.19
2019-01-12T05:13:08.002Z,100893.25
2019-01-12T05:13:44.505Z,100891.15
2019-01-12T05:14:20.831Z,100888.59
2019-01-12T05:14:57.327Z,100884.98
2019-01-12T05:15:34.326Z,100891.31
2019-01-12T05:16:11.283Z,100886.99
2019-01-12T05:16:48.214Z,100878.11
2019-01-12T05:17:24.712Z,100881.08
2019-01-12T05:18:01.509Z,100882.44
2019-01-12T05:18:37.860Z,100878.83
2019-01-12T05:19:14.573Z,100875.47
2019-01-12T05:19:52.083Z,100874.34
2019-01-12T05:20:29.041Z,100873.22
2019-01-12T05:21:06.283Z,100872.76
2019-01-12T05:21:43.033Z,100874.55
2019-01-12T05:22:19.414Z,100870.29
2019-01-12T05:22:56.213Z,100868.99
2019-01-12T05:23:32.973Z,100864.09
2019-01-12T05:24:10.163Z,100868.44
2019-01-12T05:24:46.496Z,100866.19
2019-01-12T05:25:23.220Z,100862.72
2019-01-12T05:26:00.282Z,100861.36
2019-01-12T05:26:37.334Z,100855.53
2019-01-12T05:27:13.937Z,100862.66
2019-01-12T05:27:51.035Z,100862.19
2019-01-12T05:28:27.394Z,100865.80
2019-01-12T05:29:04.426Z,100860.29
2019-01-12T05:29:41.446Z,100857.09
2019-01-12T05:30:26.548Z,100861.55
2019-01-12T05:31:02.797Z,100864.59
2019-01-12T05:31:39.881Z,100862.20
2019-01-12T05:32:16.712Z,100868.25
2019-01-12T05:32:53.377Z,100861.86
2019-01-12T05:33:29.578Z,100864.27
2019-01-12T05:34:06.350Z,100860.43
2019-01-12T05:34:43.330Z,100858.97
2019-01-12T05:35:20.514Z,100858.66
2019-01-12T05:35:57.219Z,100857.78
2019-01-12T05:36:34.299Z,100861.30
2019-01-12T05:37:11.246Z,100859.14
2019-01-12T05:37:47.953Z,100853.70
2019-01-12T05:38:24.509Z,100856.74
2019-01-12T05:39:02.029Z,100855.38
2019-01-12T05:39:38.430Z,100854.02
2019-01-12T05:40:15.345Z,100854.34
2019-01-12T05:40:52.493Z,100853.55
2019-01-12T05:41:28.817Z,100850.83
2019-01-12T05:42:05.238Z,100853.22
2019-01-12T05:42:42.436Z,100854.50
2019-01-12T05:43:18.968Z,100851.78
2019-01-12T05:43:55.991Z,100851.55
2019-01-12T05:44:32.911Z,100849.70
2019-01-12T05:45:09.598Z,100851.70
2019-01-12T05:45:46.317Z,100846.87
2019-01-12T05:46:22.648Z,100847.44
2019-01-12T05:46:58.814Z,100841.70
2019-01-12T05:47:35.727Z,100845.15
2019-01-12T05:48:12.745Z,100837.55
2019-01-12T05:48:48.986Z,100839.84
2019-01-12T05:49:26.285Z,100838.99
2019-01-12T05:50:03.364Z,100833.23
2019-01-12T05:50:40.706Z,100831.79
2019-01-12T05:51:17.629Z,100825.70
2019-01-12T05:51:54.001Z,100831.86
2019-01-12T05:52:31.097Z,100827.37
2019-01-12T05:53:07.796Z,100829.69
2019-01-12T05:53:44.730Z,100827.45
2019-01-12T05:54:21.894Z,100824.44
2019-01-12T05:54:58.117Z,100822.19
2019-01-12T05:55:35.306Z,100818.02
2019-01-12T05:56:12.329Z,100814.66
2019-01-12T05:56:48.486Z,100813.53
2019-01-12T05:57:26.250Z,100811.94
2019-01-12T05:58:02.637Z,100810.34
2019-01-12T05:58:40.047Z,100807.62
2019-01-12T05:59:16.994Z,100808.74
2019-01-12T05:59:54.002Z,100804.42
2019-01-12T06:00:30.220Z,100802.50
2019-01-12T06:01:07.148Z,100801.47
2019-01-12T06:01:44.655Z,100798.74
2019-01-12T06:02:21.017Z,100796.11
2019-01-12T06:02:57.889Z,100793.68
2019-01-12T06:03:34.976Z,100796.16
2019-01-12T06:04:12.145Z,100790.48
2019-01-12T06:04:48.519Z,100791.13
2019-01-12T06:05:25.229Z,100788.65
2019-01-12T06:06:01.638Z,100791.61
2019-01-12T06:06:38.462Z,100788.00
2019-01-12T06:07:15.244Z,100789.60
2019-01-12T06:07:52.033Z,100786.03
2019-01-12T06:08:28.490Z,100782.19
2019-01-12T06:09:06.691Z,100782.34
2019-01-12T06:09:43.472Z,100779.29
2019-01-12T06:10:20.552Z,100782.48
2019-01-12T06:10:57.321Z,100779.44
2019-01-12T06:11:34.545Z,100773.20
2019-01-12T06:12:10.977Z,100768.80
2019-01-12T06:12:47.248Z,100771.75
2019-01-12T06:13:24.523Z,100769.50
2019-01-12T06:14:01.596Z,100767.11
2019-01-12T06:14:38.018Z,100766.78
2019-01-12T06:15:14.538Z,100765.98
2019-01-12T06:15:52.039Z,100764.62
2019-01-12T06:16:28.920Z,100764.62
2019-01-12T06:17:05.745Z,100765.19
2019-01-12T06:17:42.107Z,100758.95
2019-01-12T06:18:18.858Z,100755.75
2019-01-12T06:18:55.172Z,100759.21
2019-01-12T06:19:31.522Z,100757.20
2019-01-12T06:20:09.499Z,100758.33
2019-01-12T06:20:46.660Z,100753.20
2019-01-12T06:21:23.781Z,100757.05
2019-01-12T06:22:00.179Z,100755.45
2019-01-12T06:22:36.963Z,100760.09
2019-01-12T06:23:13.035Z,100758.73
2019-01-12T06:23:49.374Z,100757.05
2019-01-12T06:24:26.649Z,100756.25
2019-01-12T06:25:02.974Z,100752.73
2019-01-12T06:25:39.447Z,100755.78
2019-01-12T06:26:16.465Z,100754.09
2019-01-12T06:26:53.388Z,100751.14
2019-01-12T06:27:29.648Z,100751.61
2019-01-12T06:28:05.934Z,100751.61
2019-01-12T06:28:42.665Z,100747.30
2019-01-12T06:29:19.529Z,100747.05
2019-01-12T06:29:56.766Z,100747.05
2019-01-12T06:30:33.591Z,100746.73
2019-01-12T06:31:10.498Z,100740.25
2019-01-12T06:31:47.451Z,100744.34
2019-01-12T06:32:23.797Z,100740.91
2019-01-12T06:33:00.605Z,100742.50
2019-01-12T06:33:36.903Z,100735.47
2019-01-12T06:34:13.239Z,100738.75
2019-01-12T06:34:50.974Z,100738.66
2019-01-12T06:35:28.204Z,100739.78
2019-01-12T06:36:05.714Z,100738.89
2019-01-12T06:36:42.059Z,100739.70
2019-01-12T06:37:18.932Z,100738.57
2019-01-12T06:37:55.203Z,100737.45
2019-01-12T06:38:31.989Z,100733.22
2019-01-12T06:39:10.912Z,100733.45
2019-01-12T06:39:47.023Z,100729.61
2019-01-12T06:40:23.145Z,100730.50
2019-01-12T06:40:59.636Z,100729.61
2019-01-12T06:41:35.956Z,100728.58
2019-01-12T06:42:12.620Z,100726.18
2019-01-12T06:42:49.606Z,100726.98
2019-01-12T06:43:27.052Z,100723.22
2019-01-12T06:44:03.435Z,100721.59
2019-01-12T06:44:40.256Z,100721.30
2019-01-12T06:45:17.744Z,100725.20
2019-01-12T06:45:54.064Z,100720.89
2019-01-12T06:46:30.771Z,100717.28
2019-01-12T06:47:06.877Z,100716.42
2019-01-12T06:47:43.920Z,100718.02
2019-01-12T06:48:20.948Z,100710.98
2019-01-12T06:48:58.055Z,100706.02
2019-01-12T06:49:34.447Z,100709.20
2019-01-12T06:50:12.033Z,100701.28
2019-01-12T06:50:48.813Z,100697.44
2019-01-12T06:51:25.189Z,100698.47
2019-01-12T06:52:01.771Z,100701.10
2019-01-12T06:52:38.585Z,100692.05
2019-01-12T06:53:15.362Z,100696.37
2019-01-12T06:53:52.427Z,100693.64
2019-01-12T06:54:29.970Z,100688.94
2019-01-12T06:55:07.225Z,100688.94
2019-01-12T06:55:43.563Z,100690.77
2019-01-12T06:56:20.850Z,100688.61
2019-01-12T06:56:58.252Z,100691.00
2019-01-12T06:57:34.493Z,100688.52
2019-01-12T06:58:11.141Z,100684.67
2019-01-12T06:58:48.350Z,100683.58
2019-01-12T06:59:24.858Z,100681.95
2019-01-12T07:00:01.969Z,100685.80
2019-01-12T07:00:38.237Z,100680.36